sensor_id;sensor_type;location;lat;lon;timestamp;P1;durP1;ratioP1;P2;durP2;ratioP2
75894;SDS011;64573;50.328;15.014;2022-11-20T00:00:52;49.15;;;19.55;;
75894;SDS011;64573;50.328;15.014;2022-11-20T00:03:17;40.25;;;16.40;;
75894;SDS011;64573;50.328;15.014;2022-11-20T00:05:43;40.22;;;15.82;;
75894;SDS011;64573;50.328;15.014;2022-11-20T00:08:09;48.95;;;18.83;;
75894;SDS011;64573;50.328;15.014;2022-11-20T00:10:38;55.00;;;18.17;;
75894;SDS011;64573;50.328;15.014;2022-11-20T00:13:04;64.38;;;21.98;;
75894;SDS011;64573;50.328;15.014;2022-11-20T00:15:30;85.65;;;25.38;;
75894;SDS011;64573;50.328;15.014;2022-11-20T00:17:56;72.97;;;24.52;;
75894;SDS011;64573;50.328;15.014;2022-11-20T00:20:21;70.43;;;22.52;;
75894;SDS011;64573;50.328;15.014;2022-11-20T00:22:47;56.63;;;19.80;;
75894;SDS011;64573;50.328;15.014;2022-11-20T00:25:12;43.58;;;16.27;;
75894;SDS011;64573;50.328;15.014;2022-11-20T00:27:37;42.03;;;16.73;;
75894;SDS011;64573;50.328;15.014;2022-11-20T00:30:03;53.63;;;17.52;;
75894;SDS011;64573;50.328;15.014;2022-11-20T00:32:29;45.47;;;16.45;;
75894;SDS011;64573;50.328;15.014;2022-11-20T00:34:55;43.35;;;17.13;;
75894;SDS011;64573;50.328;15.014;2022-11-20T00:37:20;41.38;;;15.93;;
75894;SDS011;64573;50.328;15.014;2022-11-20T00:39:45;42.40;;;16.33;;
75894;SDS011;64573;50.328;15.014;2022-11-20T00:42:11;37.47;;;14.45;;
75894;SDS011;64573;50.328;15.014;2022-11-20T00:44:36;37.85;;;15.60;;
75894;SDS011;64573;50.328;15.014;2022-11-20T00:47:01;47.53;;;19.98;;
75894;SDS011;64573;50.328;15.014;2022-11-20T00:49:27;59.38;;;21.90;;
75894;SDS011;64573;50.328;15.014;2022-11-20T00:51:52;42.75;;;17.30;;
75894;SDS011;64573;50.328;15.014;2022-11-20T00:54:17;57.83;;;20.60;;
75894;SDS011;64573;50.328;15.014;2022-11-20T00:56:43;54.03;;;20.35;;
75894;SDS011;64573;50.328;15.014;2022-11-20T00:59:08;53.67;;;18.52;;
75894;SDS011;64573;50.328;15.014;2022-11-20T01:01:34;46.78;;;17.10;;
75894;SDS011;64573;50.328;15.014;2022-11-20T01:04:01;49.85;;;20.55;;
75894;SDS011;64573;50.328;15.014;2022-11-20T01:06:30;49.65;;;17.55;;
75894;SDS011;64573;50.328;15.014;2022-11-20T01:09:02;38.25;;;14.43;;
75894;SDS011;64573;50.328;15.014;2022-11-20T01:11:32;39.40;;;14.35;;
75894;SDS011;64573;50.328;15.014;2022-11-20T01:14:00;50.45;;;19.85;;
75894;SDS011;64573;50.328;15.014;2022-11-20T01:16:28;47.35;;;17.88;;
75894;SDS011;64573;50.328;15.014;2022-11-20T01:18:59;56.70;;;18.75;;
75894;SDS011;64573;50.328;15.014;2022-11-20T01:21:29;53.03;;;18.23;;
75894;SDS011;64573;50.328;15.014;2022-11-20T01:23:56;67.70;;;20.33;;
75894;SDS011;64573;50.328;15.014;2022-11-20T01:26:27;53.53;;;17.38;;
75894;SDS011;64573;50.328;15.014;2022-11-20T01:28:54;45.60;;;16.65;;
75894;SDS011;64573;50.328;15.014;2022-11-20T01:31:22;47.25;;;15.15;;
75894;SDS011;64573;50.328;15.014;2022-11-20T01:33:57;50.25;;;17.98;;
75894;SDS011;64573;50.328;15.014;2022-11-20T01:36:24;45.28;;;16.60;;
75894;SDS011;64573;50.328;15.014;2022-11-20T01:38:55;46.78;;;16.45;;
75894;SDS011;64573;50.328;15.014;2022-11-20T01:41:23;34.60;;;13.60;;
75894;SDS011;64573;50.328;15.014;2022-11-20T01:44:09;38.22;;;14.60;;
75894;SDS011;64573;50.328;15.014;2022-11-20T01:46:38;50.05;;;15.35;;
75894;SDS011;64573;50.328;15.014;2022-11-20T01:51:43;41.17;;;13.70;;
75894;SDS011;64573;50.328;15.014;2022-11-20T01:54:15;40.85;;;15.38;;
75894;SDS011;64573;50.328;15.014;2022-11-20T01:56:44;40.42;;;14.40;;
75894;SDS011;64573;50.328;15.014;2022-11-20T01:59:12;38.25;;;15.35;;
75894;SDS011;64573;50.328;15.014;2022-11-20T02:01:40;62.28;;;19.20;;
75894;SDS011;64573;50.328;15.014;2022-11-20T02:04:06;65.97;;;21.52;;
75894;SDS011;64573;50.328;15.014;2022-11-20T02:06:44;67.72;;;21.20;;
75894;SDS011;64573;50.328;15.014;2022-11-20T02:09:13;58.47;;;19.55;;
75894;SDS011;64573;50.328;15.014;2022-11-20T02:11:39;57.10;;;20.02;;
75894;SDS011;64573;50.328;15.014;2022-11-20T02:14:05;55.25;;;20.35;;
75894;SDS011;64573;50.328;15.014;2022-11-20T02:16:32;50.65;;;16.05;;
75894;SDS011;64573;50.328;15.014;2022-11-20T02:19:01;55.83;;;19.20;;
75894;SDS011;64573;50.328;15.014;2022-11-20T02:24:18;55.22;;;16.98;;
75894;SDS011;64573;50.328;15.014;2022-11-20T02:26:50;43.67;;;16.58;;
75894;SDS011;64573;50.328;15.014;2022-11-20T02:29:36;37.22;;;13.40;;
75894;SDS011;64573;50.328;15.014;2022-11-20T02:32:06;38.88;;;13.35;;
75894;SDS011;64573;50.328;15.014;2022-11-20T02:34:31;37.42;;;14.70;;
75894;SDS011;64573;50.328;15.014;2022-11-20T02:36:57;46.65;;;16.80;;
75894;SDS011;64573;50.328;15.014;2022-11-20T02:39:24;35.72;;;13.77;;
75894;SDS011;64573;50.328;15.014;2022-11-20T02:41:52;38.90;;;15.50;;
75894;SDS011;64573;50.328;15.014;2022-11-20T02:44:18;48.22;;;16.55;;
75894;SDS011;64573;50.328;15.014;2022-11-20T02:46:44;54.65;;;17.98;;
75894;SDS011;64573;50.328;15.014;2022-11-20T02:49:10;56.88;;;18.55;;
75894;SDS011;64573;50.328;15.014;2022-11-20T02:51:35;37.70;;;14.88;;
75894;SDS011;64573;50.328;15.014;2022-11-20T02:54:01;35.03;;;13.32;;
75894;SDS011;64573;50.328;15.014;2022-11-20T02:56:26;39.45;;;15.15;;
75894;SDS011;64573;50.328;15.014;2022-11-20T02:58:52;50.88;;;18.17;;
75894;SDS011;64573;50.328;15.014;2022-11-20T03:01:17;52.80;;;18.40;;
75894;SDS011;64573;50.328;15.014;2022-11-20T03:03:43;45.85;;;16.27;;
75894;SDS011;64573;50.328;15.014;2022-11-20T03:06:08;47.35;;;17.90;;
75894;SDS011;64573;50.328;15.014;2022-11-20T03:08:33;57.67;;;19.92;;
75894;SDS011;64573;50.328;15.014;2022-11-20T03:11:03;45.72;;;16.90;;
75894;SDS011;64573;50.328;15.014;2022-11-20T03:13:30;47.05;;;18.50;;
75894;SDS011;64573;50.328;15.014;2022-11-20T03:15:55;39.50;;;16.45;;
75894;SDS011;64573;50.328;15.014;2022-11-20T03:18:20;39.20;;;15.43;;
75894;SDS011;64573;50.328;15.014;2022-11-20T03:20:46;39.83;;;15.55;;
75894;SDS011;64573;50.328;15.014;2022-11-20T03:23:11;34.58;;;14.77;;
75894;SDS011;64573;50.328;15.014;2022-11-20T03:25:37;42.20;;;15.52;;
75894;SDS011;64573;50.328;15.014;2022-11-20T03:28:02;44.60;;;15.45;;
75894;SDS011;64573;50.328;15.014;2022-11-20T03:30:27;40.38;;;16.65;;
75894;SDS011;64573;50.328;15.014;2022-11-20T03:32:53;39.97;;;16.90;;
75894;SDS011;64573;50.328;15.014;2022-11-20T03:35:19;46.28;;;19.25;;
75894;SDS011;64573;50.328;15.014;2022-11-20T03:37:44;49.50;;;19.13;;
75894;SDS011;64573;50.328;15.014;2022-11-20T03:40:10;40.17;;;16.98;;
75894;SDS011;64573;50.328;15.014;2022-11-20T03:42:36;43.80;;;16.33;;
75894;SDS011;64573;50.328;15.014;2022-11-20T03:45:10;44.40;;;16.65;;
75894;SDS011;64573;50.328;15.014;2022-11-20T03:47:37;38.20;;;16.20;;
75894;SDS011;64573;50.328;15.014;2022-11-20T03:50:03;39.08;;;16.23;;
75894;SDS011;64573;50.328;15.014;2022-11-20T03:52:28;36.60;;;14.80;;
75894;SDS011;64573;50.328;15.014;2022-11-20T03:54:54;37.83;;;14.88;;
75894;SDS011;64573;50.328;15.014;2022-11-20T03:57:19;39.88;;;16.42;;
75894;SDS011;64573;50.328;15.014;2022-11-20T03:59:44;41.70;;;16.10;;
75894;SDS011;64573;50.328;15.014;2022-11-20T04:02:10;39.63;;;16.75;;
75894;SDS011;64573;50.328;15.014;2022-11-20T04:04:35;40.72;;;16.65;;
75894;SDS011;64573;50.328;15.014;2022-11-20T04:07:00;47.22;;;17.80;;
75894;SDS011;64573;50.328;15.014;2022-11-20T04:09:26;39.78;;;17.55;;
75894;SDS011;64573;50.328;15.014;2022-11-20T04:11:51;36.40;;;15.10;;
75894;SDS011;64573;50.328;15.014;2022-11-20T04:14:16;42.28;;;15.48;;
75894;SDS011;64573;50.328;15.014;2022-11-20T04:16:42;41.63;;;17.25;;
75894;SDS011;64573;50.328;15.014;2022-11-20T04:19:12;40.30;;;15.73;;
75894;SDS011;64573;50.328;15.014;2022-11-20T04:21:39;43.38;;;17.73;;
75894;SDS011;64573;50.328;15.014;2022-11-20T04:24:05;48.15;;;19.25;;
75894;SDS011;64573;50.328;15.014;2022-11-20T04:26:31;37.40;;;16.02;;
75894;SDS011;64573;50.328;15.014;2022-11-20T04:28:57;41.03;;;16.75;;
75894;SDS011;64573;50.328;15.014;2022-11-20T04:31:25;48.15;;;18.48;;
75894;SDS011;64573;50.328;15.014;2022-11-20T04:33:53;42.42;;;17.35;;
75894;SDS011;64573;50.328;15.014;2022-11-20T04:36:25;41.60;;;17.58;;
75894;SDS011;64573;50.328;15.014;2022-11-20T04:38:58;35.58;;;15.10;;
75894;SDS011;64573;50.328;15.014;2022-11-20T04:41:26;44.42;;;17.75;;
75894;SDS011;64573;50.328;15.014;2022-11-20T04:43:54;48.72;;;18.67;;
75894;SDS011;64573;50.328;15.014;2022-11-20T04:46:26;38.42;;;16.42;;
75894;SDS011;64573;50.328;15.014;2022-11-20T04:48:53;39.78;;;17.05;;
75894;SDS011;64573;50.328;15.014;2022-11-20T04:51:18;41.70;;;16.55;;
75894;SDS011;64573;50.328;15.014;2022-11-20T04:53:44;46.35;;;18.00;;
75894;SDS011;64573;50.328;15.014;2022-11-20T04:56:10;45.95;;;16.92;;
75894;SDS011;64573;50.328;15.014;2022-11-20T04:58:37;35.95;;;16.92;;
75894;SDS011;64573;50.328;15.014;2022-11-20T05:01:04;41.28;;;17.48;;
75894;SDS011;64573;50.328;15.014;2022-11-20T05:03:34;47.00;;;18.48;;
75894;SDS011;64573;50.328;15.014;2022-11-20T05:06:00;45.85;;;17.98;;
75894;SDS011;64573;50.328;15.014;2022-11-20T05:08:27;42.40;;;17.83;;
75894;SDS011;64573;50.328;15.014;2022-11-20T05:10:53;42.55;;;17.27;;
75894;SDS011;64573;50.328;15.014;2022-11-20T05:13:18;40.53;;;16.23;;
75894;SDS011;64573;50.328;15.014;2022-11-20T05:15:43;39.33;;;14.95;;
75894;SDS011;64573;50.328;15.014;2022-11-20T05:18:09;43.47;;;17.52;;
75894;SDS011;64573;50.328;15.014;2022-11-20T05:20:34;40.13;;;17.13;;
75894;SDS011;64573;50.328;15.014;2022-11-20T05:23:01;42.53;;;18.10;;
75894;SDS011;64573;50.328;15.014;2022-11-20T05:25:27;42.83;;;17.85;;
75894;SDS011;64573;50.328;15.014;2022-11-20T05:27:52;43.50;;;17.85;;
75894;SDS011;64573;50.328;15.014;2022-11-20T05:30:18;43.13;;;17.88;;
75894;SDS011;64573;50.328;15.014;2022-11-20T05:32:44;38.70;;;17.13;;
75894;SDS011;64573;50.328;15.014;2022-11-20T05:35:09;38.40;;;17.10;;
75894;SDS011;64573;50.328;15.014;2022-11-20T05:37:34;39.60;;;16.75;;
75894;SDS011;64573;50.328;15.014;2022-11-20T05:40:00;47.67;;;21.48;;
75894;SDS011;64573;50.328;15.014;2022-11-20T05:42:25;40.80;;;17.73;;
75894;SDS011;64573;50.328;15.014;2022-11-20T05:44:57;44.83;;;18.73;;
75894;SDS011;64573;50.328;15.014;2022-11-20T05:47:23;40.40;;;18.10;;
75894;SDS011;64573;50.328;15.014;2022-11-20T05:49:48;47.20;;;18.20;;
75894;SDS011;64573;50.328;15.014;2022-11-20T05:52:14;38.95;;;17.52;;
75894;SDS011;64573;50.328;15.014;2022-11-20T05:54:39;43.10;;;17.77;;
75894;SDS011;64573;50.328;15.014;2022-11-20T05:57:05;39.03;;;18.35;;
75894;SDS011;64573;50.328;15.014;2022-11-20T05:59:30;43.80;;;17.42;;
75894;SDS011;64573;50.328;15.014;2022-11-20T06:01:55;45.75;;;18.63;;
75894;SDS011;64573;50.328;15.014;2022-11-20T06:04:21;39.90;;;17.27;;
75894;SDS011;64573;50.328;15.014;2022-11-20T06:06:46;41.17;;;16.45;;
75894;SDS011;64573;50.328;15.014;2022-11-20T06:09:12;43.78;;;18.42;;
75894;SDS011;64573;50.328;15.014;2022-11-20T06:11:37;40.28;;;18.33;;
75894;SDS011;64573;50.328;15.014;2022-11-20T06:14:03;51.22;;;21.00;;
75894;SDS011;64573;50.328;15.014;2022-11-20T06:16:28;47.10;;;19.65;;
75894;SDS011;64573;50.328;15.014;2022-11-20T06:18:54;49.35;;;19.83;;
75894;SDS011;64573;50.328;15.014;2022-11-20T06:21:20;47.80;;;19.35;;
75894;SDS011;64573;50.328;15.014;2022-11-20T06:23:47;40.45;;;18.77;;
75894;SDS011;64573;50.328;15.014;2022-11-20T06:26:17;48.97;;;18.70;;
75894;SDS011;64573;50.328;15.014;2022-11-20T06:28:44;49.40;;;20.13;;
75894;SDS011;64573;50.328;15.014;2022-11-20T06:31:11;46.65;;;20.75;;
75894;SDS011;64573;50.328;15.014;2022-11-20T06:33:39;46.47;;;19.42;;
75894;SDS011;64573;50.328;15.014;2022-11-20T06:36:05;51.45;;;20.25;;
75894;SDS011;64573;50.328;15.014;2022-11-20T06:38:31;49.05;;;20.48;;
75894;SDS011;64573;50.328;15.014;2022-11-20T06:40:56;46.42;;;21.05;;
75894;SDS011;64573;50.328;15.014;2022-11-20T06:43:22;52.25;;;20.92;;
75894;SDS011;64573;50.328;15.014;2022-11-20T06:45:51;49.03;;;21.25;;
75894;SDS011;64573;50.328;15.014;2022-11-20T06:48:18;48.35;;;20.27;;
75894;SDS011;64573;50.328;15.014;2022-11-20T06:50:43;78.28;;;42.70;;
75894;SDS011;64573;50.328;15.014;2022-11-20T06:53:08;49.55;;;22.38;;
75894;SDS011;64573;50.328;15.014;2022-11-20T06:55:33;45.75;;;18.90;;
75894;SDS011;64573;50.328;15.014;2022-11-20T06:57:59;51.58;;;21.38;;
75894;SDS011;64573;50.328;15.014;2022-11-20T07:00:24;41.75;;;18.00;;
75894;SDS011;64573;50.328;15.014;2022-11-20T07:02:50;43.42;;;19.05;;
75894;SDS011;64573;50.328;15.014;2022-11-20T07:05:15;47.40;;;19.48;;
75894;SDS011;64573;50.328;15.014;2022-11-20T07:07:41;51.42;;;21.50;;
75894;SDS011;64573;50.328;15.014;2022-11-20T07:10:07;45.88;;;21.20;;
75894;SDS011;64573;50.328;15.014;2022-11-20T07:12:33;55.25;;;21.08;;
75894;SDS011;64573;50.328;15.014;2022-11-20T07:14:58;49.35;;;21.45;;
75894;SDS011;64573;50.328;15.014;2022-11-20T07:17:23;47.00;;;19.98;;
75894;SDS011;64573;50.328;15.014;2022-11-20T07:19:49;46.42;;;19.65;;
75894;SDS011;64573;50.328;15.014;2022-11-20T07:22:14;52.45;;;21.95;;
75894;SDS011;64573;50.328;15.014;2022-11-20T07:24:39;69.78;;;28.42;;
75894;SDS011;64573;50.328;15.014;2022-11-20T07:27:05;49.72;;;22.23;;
75894;SDS011;64573;50.328;15.014;2022-11-20T07:29:30;50.63;;;19.95;;
75894;SDS011;64573;50.328;15.014;2022-11-20T07:31:56;45.83;;;19.85;;
75894;SDS011;64573;50.328;15.014;2022-11-20T07:34:22;87.32;;;39.10;;
75894;SDS011;64573;50.328;15.014;2022-11-20T07:36:47;51.33;;;22.02;;
75894;SDS011;64573;50.328;15.014;2022-11-20T07:39:13;49.25;;;24.10;;
75894;SDS011;64573;50.328;15.014;2022-11-20T07:41:38;44.60;;;22.08;;
75894;SDS011;64573;50.328;15.014;2022-11-20T07:44:03;92.18;;;54.20;;
75894;SDS011;64573;50.328;15.014;2022-11-20T07:46:29;58.50;;;29.60;;
75894;SDS011;64573;50.328;15.014;2022-11-20T07:48:54;141.30;;;93.75;;
75894;SDS011;64573;50.328;15.014;2022-11-20T07:51:20;51.90;;;23.77;;
75894;SDS011;64573;50.328;15.014;2022-11-20T07:53:45;56.42;;;25.25;;
75894;SDS011;64573;50.328;15.014;2022-11-20T07:56:11;54.92;;;24.88;;
75894;SDS011;64573;50.328;15.014;2022-11-20T07:58:39;64.80;;;32.67;;
75894;SDS011;64573;50.328;15.014;2022-11-20T08:01:05;60.78;;;30.08;;
75894;SDS011;64573;50.328;15.014;2022-11-20T08:03:32;48.83;;;21.35;;
75894;SDS011;64573;50.328;15.014;2022-11-20T08:05:59;51.58;;;21.58;;
75894;SDS011;64573;50.328;15.014;2022-11-20T08:08:27;48.70;;;23.50;;
75894;SDS011;64573;50.328;15.014;2022-11-20T08:10:53;63.65;;;30.60;;
75894;SDS011;64573;50.328;15.014;2022-11-20T08:13:39;68.85;;;33.55;;
75894;SDS011;64573;50.328;15.014;2022-11-20T08:16:23;51.17;;;23.17;;
75894;SDS011;64573;50.328;15.014;2022-11-20T08:18:48;57.45;;;26.58;;
75894;SDS011;64573;50.328;15.014;2022-11-20T08:21:14;57.00;;;23.08;;
75894;SDS011;64573;50.328;15.014;2022-11-20T08:23:40;56.92;;;24.00;;
75894;SDS011;64573;50.328;15.014;2022-11-20T08:28:34;53.45;;;22.88;;
75894;SDS011;64573;50.328;15.014;2022-11-20T08:30:59;53.88;;;23.20;;
75894;SDS011;64573;50.328;15.014;2022-11-20T08:33:27;51.50;;;22.67;;
75894;SDS011;64573;50.328;15.014;2022-11-20T08:35:53;57.35;;;24.38;;
75894;SDS011;64573;50.328;15.014;2022-11-20T08:38:18;57.25;;;25.90;;
75894;SDS011;64573;50.328;15.014;2022-11-20T08:40:44;54.97;;;23.52;;
75894;SDS011;64573;50.328;15.014;2022-11-20T08:43:29;57.67;;;25.35;;
75894;SDS011;64573;50.328;15.014;2022-11-20T08:45:56;54.08;;;23.75;;
75894;SDS011;64573;50.328;15.014;2022-11-20T08:48:21;53.15;;;23.55;;
75894;SDS011;64573;50.328;15.014;2022-11-20T08:50:47;56.13;;;22.52;;
75894;SDS011;64573;50.328;15.014;2022-11-20T08:53:12;54.50;;;22.90;;
75894;SDS011;64573;50.328;15.014;2022-11-20T08:55:37;46.83;;;20.92;;
75894;SDS011;64573;50.328;15.014;2022-11-20T08:58:04;49.30;;;21.58;;
75894;SDS011;64573;50.328;15.014;2022-11-20T09:00:30;50.95;;;22.98;;
75894;SDS011;64573;50.328;15.014;2022-11-20T09:02:57;50.80;;;23.10;;
75894;SDS011;64573;50.328;15.014;2022-11-20T09:05:23;49.50;;;22.13;;
75894;SDS011;64573;50.328;15.014;2022-11-20T09:07:49;48.15;;;20.70;;
75894;SDS011;64573;50.328;15.014;2022-11-20T09:10:14;45.35;;;20.85;;
75894;SDS011;64573;50.328;15.014;2022-11-20T09:12:39;52.75;;;23.95;;
75894;SDS011;64573;50.328;15.014;2022-11-20T09:15:05;55.45;;;22.77;;
75894;SDS011;64573;50.328;15.014;2022-11-20T09:17:31;54.72;;;23.65;;
75894;SDS011;64573;50.328;15.014;2022-11-20T09:19:56;53.15;;;23.67;;
75894;SDS011;64573;50.328;15.014;2022-11-20T09:22:21;53.55;;;23.98;;
75894;SDS011;64573;50.328;15.014;2022-11-20T09:24:49;53.58;;;22.35;;
75894;SDS011;64573;50.328;15.014;2022-11-20T09:27:15;48.13;;;21.80;;
75894;SDS011;64573;50.328;15.014;2022-11-20T09:29:45;54.75;;;23.80;;
75894;SDS011;64573;50.328;15.014;2022-11-20T09:32:14;46.58;;;20.80;;
75894;SDS011;64573;50.328;15.014;2022-11-20T09:34:39;48.15;;;22.15;;
75894;SDS011;64573;50.328;15.014;2022-11-20T09:37:04;53.53;;;23.75;;
75894;SDS011;64573;50.328;15.014;2022-11-20T09:39:30;51.03;;;22.40;;
75894;SDS011;64573;50.328;15.014;2022-11-20T09:42:20;50.92;;;19.60;;
75894;SDS011;64573;50.328;15.014;2022-11-20T09:50:34;49.08;;;20.50;;
75894;SDS011;64573;50.328;15.014;2022-11-20T09:53:12;48.78;;;20.35;;
75894;SDS011;64573;50.328;15.014;2022-11-20T09:55:45;49.95;;;22.35;;
75894;SDS011;64573;50.328;15.014;2022-11-20T10:01:19;48.42;;;20.17;;
75894;SDS011;64573;50.328;15.014;2022-11-20T10:09:37;49.00;;;20.42;;
75894;SDS011;64573;50.328;15.014;2022-11-20T10:12:18;49.25;;;21.58;;
75894;SDS011;64573;50.328;15.014;2022-11-20T10:20:40;49.67;;;21.55;;
75894;SDS011;64573;50.328;15.014;2022-11-20T10:28:56;50.50;;;22.33;;
75894;SDS011;64573;50.328;15.014;2022-11-20T10:31:34;49.20;;;22.65;;
75894;SDS011;64573;50.328;15.014;2022-11-20T10:34:26;55.78;;;23.95;;
75894;SDS011;64573;50.328;15.014;2022-11-20T10:36:59;51.58;;;23.77;;
75894;SDS011;64573;50.328;15.014;2022-11-20T10:42:22;53.78;;;24.30;;
75894;SDS011;64573;50.328;15.014;2022-11-20T10:45:21;54.88;;;25.42;;
75894;SDS011;64573;50.328;15.014;2022-11-20T10:50:32;52.15;;;22.58;;
75894;SDS011;64573;50.328;15.014;2022-11-20T10:56:03;53.47;;;22.65;;
75894;SDS011;64573;50.328;15.014;2022-11-20T10:58:37;49.20;;;22.13;;
75894;SDS011;64573;50.328;15.014;2022-11-20T11:03:40;48.78;;;21.98;;
75894;SDS011;64573;50.328;15.014;2022-11-20T11:06:10;54.90;;;23.70;;
75894;SDS011;64573;50.328;15.014;2022-11-20T11:08:42;51.40;;;23.30;;
75894;SDS011;64573;50.328;15.014;2022-11-20T11:11:18;53.75;;;23.50;;
75894;SDS011;64573;50.328;15.014;2022-11-20T11:13:47;52.08;;;24.67;;
75894;SDS011;64573;50.328;15.014;2022-11-20T11:16:20;54.13;;;23.95;;
75894;SDS011;64573;50.328;15.014;2022-11-20T11:18:48;57.00;;;25.05;;
75894;SDS011;64573;50.328;15.014;2022-11-20T11:21:13;51.35;;;24.15;;
75894;SDS011;64573;50.328;15.014;2022-11-20T11:26:20;53.67;;;23.73;;
75894;SDS011;64573;50.328;15.014;2022-11-20T11:31:21;53.30;;;23.45;;
75894;SDS011;64573;50.328;15.014;2022-11-20T11:33:51;56.50;;;24.83;;
75894;SDS011;64573;50.328;15.014;2022-11-20T11:36:17;62.80;;;26.13;;
75894;SDS011;64573;50.328;15.014;2022-11-20T11:38:48;59.50;;;26.27;;
75894;SDS011;64573;50.328;15.014;2022-11-20T11:41:22;54.08;;;25.42;;
75894;SDS011;64573;50.328;15.014;2022-11-20T11:43:53;55.60;;;24.85;;
75894;SDS011;64573;50.328;15.014;2022-11-20T11:46:41;58.70;;;26.15;;
75894;SDS011;64573;50.328;15.014;2022-11-20T11:54:17;54.78;;;24.58;;
75894;SDS011;64573;50.328;15.014;2022-11-20T11:56:44;55.95;;;25.30;;
75894;SDS011;64573;50.328;15.014;2022-11-20T11:59:12;57.95;;;25.00;;
75894;SDS011;64573;50.328;15.014;2022-11-20T12:02:10;53.70;;;23.73;;
75894;SDS011;64573;50.328;15.014;2022-11-20T12:04:43;58.33;;;24.30;;
75894;SDS011;64573;50.328;15.014;2022-11-20T12:07:16;54.40;;;24.08;;
75894;SDS011;64573;50.328;15.014;2022-11-20T12:09:48;54.92;;;25.65;;
75894;SDS011;64573;50.328;15.014;2022-11-20T12:12:20;54.95;;;24.50;;
75894;SDS011;64573;50.328;15.014;2022-11-20T12:15:00;52.50;;;22.63;;
75894;SDS011;64573;50.328;15.014;2022-11-20T12:17:27;51.28;;;23.83;;
75894;SDS011;64573;50.328;15.014;2022-11-20T12:19:52;52.20;;;24.25;;
75894;SDS011;64573;50.328;15.014;2022-11-20T12:24:55;54.45;;;24.52;;
75894;SDS011;64573;50.328;15.014;2022-11-20T12:27:32;52.83;;;24.95;;
75894;SDS011;64573;50.328;15.014;2022-11-20T12:37:33;60.20;;;26.50;;
75894;SDS011;64573;50.328;15.014;2022-11-20T12:39:58;57.58;;;25.00;;
75894;SDS011;64573;50.328;15.014;2022-11-20T12:42:39;61.00;;;25.27;;
75894;SDS011;64573;50.328;15.014;2022-11-20T12:53:04;52.60;;;22.13;;
75894;SDS011;64573;50.328;15.014;2022-11-20T13:08:38;47.85;;;20.90;;
75894;SDS011;64573;50.328;15.014;2022-11-20T13:26:36;52.50;;;21.27;;
75894;SDS011;64573;50.328;15.014;2022-11-20T13:29:04;50.75;;;21.52;;
75894;SDS011;64573;50.328;15.014;2022-11-20T13:34:05;54.88;;;22.23;;
75894;SDS011;64573;50.328;15.014;2022-11-20T13:36:32;56.38;;;23.75;;
75894;SDS011;64573;50.328;15.014;2022-11-20T13:38:59;49.42;;;21.10;;
75894;SDS011;64573;50.328;15.014;2022-11-20T13:41:29;53.85;;;21.98;;
75894;SDS011;64573;50.328;15.014;2022-11-20T13:46:36;54.63;;;24.67;;
75894;SDS011;64573;50.328;15.014;2022-11-20T13:49:10;48.78;;;20.88;;
75894;SDS011;64573;50.328;15.014;2022-11-20T13:51:44;45.90;;;20.98;;
75894;SDS011;64573;50.328;15.014;2022-11-20T13:56:56;49.95;;;22.67;;
75894;SDS011;64573;50.328;15.014;2022-11-20T14:02:00;50.40;;;20.90;;
75894;SDS011;64573;50.328;15.014;2022-11-20T15:21:45;62.92;;;24.92;;
75894;SDS011;64573;50.328;15.014;2022-11-20T15:24:10;57.05;;;22.63;;
75894;SDS011;64573;50.328;15.014;2022-11-20T15:34:17;62.05;;;26.35;;
75894;SDS011;64573;50.328;15.014;2022-11-20T15:36:43;58.15;;;26.85;;
75894;SDS011;64573;50.328;15.014;2022-11-20T15:46:47;57.33;;;22.63;;
75894;SDS011;64573;50.328;15.014;2022-11-20T15:59:23;66.07;;;26.63;;
75894;SDS011;64573;50.328;15.014;2022-11-20T16:12:07;56.97;;;24.48;;
75894;SDS011;64573;50.328;15.014;2022-11-20T16:14:37;68.43;;;28.02;;
75894;SDS011;64573;50.328;15.014;2022-11-20T16:19:34;64.20;;;25.23;;
75894;SDS011;64573;50.328;15.014;2022-11-20T16:21:59;62.25;;;26.67;;
75894;SDS011;64573;50.328;15.014;2022-11-20T16:24:27;64.60;;;28.27;;
75894;SDS011;64573;50.328;15.014;2022-11-20T16:26:53;62.83;;;27.67;;
75894;SDS011;64573;50.328;15.014;2022-11-20T16:29:19;67.38;;;26.08;;
75894;SDS011;64573;50.328;15.014;2022-11-20T16:31:44;66.03;;;26.02;;
75894;SDS011;64573;50.328;15.014;2022-11-20T16:34:10;67.57;;;27.48;;
75894;SDS011;64573;50.328;15.014;2022-11-20T16:36:35;64.43;;;27.98;;
75894;SDS011;64573;50.328;15.014;2022-11-20T16:39:04;68.32;;;27.73;;
75894;SDS011;64573;50.328;15.014;2022-11-20T16:41:31;65.10;;;27.38;;
75894;SDS011;64573;50.328;15.014;2022-11-20T16:43:58;73.53;;;28.00;;
75894;SDS011;64573;50.328;15.014;2022-11-20T16:46:26;65.40;;;27.60;;
75894;SDS011;64573;50.328;15.014;2022-11-20T16:53:51;70.85;;;28.98;;
75894;SDS011;64573;50.328;15.014;2022-11-20T16:56:18;70.18;;;28.10;;
75894;SDS011;64573;50.328;15.014;2022-11-20T16:58:47;68.28;;;28.67;;
75894;SDS011;64573;50.328;15.014;2022-11-20T17:06:17;64.40;;;27.33;;
75894;SDS011;64573;50.328;15.014;2022-11-20T17:08:44;73.15;;;30.17;;
75894;SDS011;64573;50.328;15.014;2022-11-20T17:11:11;71.68;;;29.63;;
75894;SDS011;64573;50.328;15.014;2022-11-20T17:13:38;64.78;;;26.60;;
75894;SDS011;64573;50.328;15.014;2022-11-20T17:16:05;58.00;;;23.73;;
75894;SDS011;64573;50.328;15.014;2022-11-20T17:18:32;56.50;;;24.20;;
75894;SDS011;64573;50.328;15.014;2022-11-20T17:20:58;62.63;;;26.25;;
75894;SDS011;64573;50.328;15.014;2022-11-20T17:23:28;63.20;;;23.95;;
75894;SDS011;64573;50.328;15.014;2022-11-20T17:26:08;66.88;;;26.17;;
75894;SDS011;64573;50.328;15.014;2022-11-20T17:28:38;61.47;;;23.23;;
75894;SDS011;64573;50.328;15.014;2022-11-20T17:31:06;64.88;;;26.20;;
75894;SDS011;64573;50.328;15.014;2022-11-20T17:33:33;68.13;;;27.52;;
75894;SDS011;64573;50.328;15.014;2022-11-20T17:36:00;76.75;;;32.28;;
75894;SDS011;64573;50.328;15.014;2022-11-20T17:38:25;78.88;;;33.70;;
75894;SDS011;64573;50.328;15.014;2022-11-20T17:40:51;71.25;;;30.55;;
75894;SDS011;64573;50.328;15.014;2022-11-20T17:43:17;67.68;;;29.38;;
75894;SDS011;64573;50.328;15.014;2022-11-20T17:48:11;72.07;;;30.80;;
75894;SDS011;64573;50.328;15.014;2022-11-20T17:50:37;67.32;;;28.25;;
75894;SDS011;64573;50.328;15.014;2022-11-20T17:53:03;65.90;;;27.48;;
75894;SDS011;64573;50.328;15.014;2022-11-20T17:55:28;65.30;;;26.65;;
75894;SDS011;64573;50.328;15.014;2022-11-20T17:58:11;61.10;;;24.98;;
75894;SDS011;64573;50.328;15.014;2022-11-20T18:00:36;68.22;;;29.05;;
75894;SDS011;64573;50.328;15.014;2022-11-20T18:03:02;75.20;;;30.17;;
75894;SDS011;64573;50.328;15.014;2022-11-20T18:05:28;80.75;;;33.03;;
75894;SDS011;64573;50.328;15.014;2022-11-20T18:07:54;82.40;;;32.88;;
75894;SDS011;64573;50.328;15.014;2022-11-20T18:10:19;73.82;;;29.52;;
75894;SDS011;64573;50.328;15.014;2022-11-20T18:12:45;81.70;;;33.50;;